createdAt,value
2018-12-30T00:02:57.388Z,11.87
2018-12-30T00:06:01.963Z,4.00
2018-12-30T00:09:07.504Z,5.37
2018-12-30T00:12:12.208Z,6.53
2018-12-30T00:15:16.606Z,6.97
2018-12-30T00:18:20.866Z,6.47
2018-12-30T00:21:25.240Z,7.90
2018-12-30T00:24:29.599Z,5.43
2018-12-30T00:27:34.003Z,13.23
2018-12-30T00:30:38.326Z,12.33
2018-12-30T00:33:42.766Z,6.83
2018-12-30T00:36:47.197Z,9.10
2018-12-30T00:39:51.742Z,15.30
2018-12-30T00:42:56.131Z,17.70
2018-12-30T00:46:00.433Z,8.37
2018-12-30T00:49:04.898Z,6.53
2018-12-30T00:52:09.324Z,4.10
2018-12-30T00:55:13.778Z,10.07
2018-12-30T00:58:18.199Z,13.67
2018-12-30T01:01:22.603Z,13.60
2018-12-30T01:04:26.990Z,10.33
2018-12-30T01:07:31.353Z,8.50
2018-12-30T01:10:35.977Z,13.30
2018-12-30T01:13:40.367Z,22.47
2018-12-30T01:16:44.731Z,20.17
2018-12-30T01:19:49.178Z,34.97
2018-12-30T01:22:53.522Z,25.33
2018-12-30T01:25:58.082Z,18.53
2018-12-30T01:29:02.477Z,22.80
2018-12-30T01:32:06.878Z,13.90
2018-12-30T01:35:11.246Z,23.97
2018-12-30T01:38:15.633Z,16.73
2018-12-30T01:41:19.976Z,14.67
2018-12-30T01:44:24.384Z,16.40
2018-12-30T01:47:28.760Z,11.50
2018-12-30T01:50:33.150Z,20.60
2018-12-30T01:53:37.546Z,21.53
2018-12-30T01:56:41.875Z,20.97
2018-12-30T01:59:46.258Z,16.27
2018-12-30T02:02:50.568Z,26.83
2018-12-30T02:05:54.978Z,26.53
2018-12-30T02:08:59.330Z,19.90
2018-12-30T02:12:03.705Z,24.83
2018-12-30T02:15:08.017Z,25.10
2018-12-30T02:18:12.489Z,28.37
2018-12-30T02:21:16.921Z,17.13
2018-12-30T02:24:21.361Z,9.80
2018-12-30T02:27:25.770Z,13.30
2018-12-30T02:30:30.218Z,22.30
2018-12-30T02:33:34.507Z,15.27
2018-12-30T02:36:39.218Z,15.63
2018-12-30T02:39:43.737Z,18.40
2018-12-30T02:42:48.280Z,15.00
2018-12-30T02:45:52.600Z,15.60
2018-12-30T02:48:57.087Z,16.37
2018-12-30T02:52:01.395Z,24.50
2018-12-30T02:55:05.917Z,14.53
2018-12-30T02:58:10.251Z,20.10
2018-12-30T03:01:14.557Z,27.30
2018-12-30T03:04:18.922Z,17.87
2018-12-30T03:07:23.281Z,13.80
2018-12-30T03:10:27.806Z,19.20
2018-12-30T03:13:32.081Z,20.37
2018-12-30T03:16:36.437Z,15.93
2018-12-30T03:19:40.806Z,19.23
2018-12-30T03:22:45.581Z,20.93
2018-12-30T03:25:49.988Z,15.93
2018-12-30T03:28:54.361Z,23.83
2018-12-30T03:31:58.683Z,13.17
2018-12-30T03:35:03.052Z,28.80
2018-12-30T03:38:07.434Z,14.17
2018-12-30T03:41:11.697Z,12.60
2018-12-30T03:44:16.127Z,16.77
2018-12-30T03:47:20.352Z,16.97
2018-12-30T03:50:24.667Z,22.13
2018-12-30T03:53:28.961Z,12.23
2018-12-30T03:56:33.355Z,19.80
2018-12-30T03:59:37.696Z,16.43
2018-12-30T04:02:41.967Z,17.27
2018-12-30T04:05:46.302Z,14.43
2018-12-30T04:08:50.657Z,17.20
2018-12-30T04:11:54.983Z,12.77
2018-12-30T04:14:59.262Z,24.70
2018-12-30T04:18:03.696Z,15.77
2018-12-30T04:21:08.028Z,19.37
2018-12-30T04:24:12.407Z,16.50
2018-12-30T04:27:16.700Z,25.00
2018-12-30T04:30:21.000Z,15.90
2018-12-30T04:33:25.307Z,22.03
2018-12-30T04:36:29.672Z,20.37
2018-12-30T04:39:34.027Z,18.73
2018-12-30T04:42:38.386Z,23.07
2018-12-30T04:45:42.673Z,26.57
2018-12-30T04:48:47.035Z,22.70
2018-12-30T04:51:51.342Z,17.47
2018-12-30T04:54:55.683Z,31.23
2018-12-30T04:58:00.008Z,20.67
2018-12-30T05:01:04.286Z,23.60
2018-12-30T05:04:08.761Z,21.37
2018-12-30T05:07:13.061Z,26.33
2018-12-30T05:10:17.311Z,25.90
2018-12-30T05:13:21.626Z,12.70
2018-12-30T05:16:25.994Z,21.00
2018-12-30T05:19:30.369Z,13.57
2018-12-30T05:22:34.692Z,21.77
2018-12-30T05:25:46.482Z,22.57
2018-12-30T05:28:50.858Z,22.23
2018-12-30T05:31:55.138Z,15.23
2018-12-30T05:34:59.496Z,18.20
2018-12-30T05:38:03.843Z,22.53
2018-12-30T05:41:08.302Z,23.00
2018-12-30T05:44:12.647Z,15.43
2018-12-30T05:47:17.023Z,15.37
2018-12-30T05:50:21.349Z,16.50
2018-12-30T05:53:25.905Z,14.20
2018-12-30T05:56:31.958Z,18.43
2018-12-30T05:59:36.360Z,24.53
2018-12-30T06:02:40.708Z,16.23
2018-12-30T06:05:45.082Z,15.20
2018-12-30T06:08:49.405Z,18.50
2018-12-30T06:11:53.719Z,23.60
2018-12-30T06:14:58.072Z,13.67
2018-12-30T06:18:02.361Z,18.97
2018-12-30T06:21:06.732Z,18.40
2018-12-30T06:24:10.980Z,13.07
2018-12-30T06:27:15.440Z,15.40
2018-12-30T06:30:19.710Z,18.60
2018-12-30T06:33:24.087Z,20.87
2018-12-30T06:36:28.431Z,11.57
2018-12-30T06:39:32.738Z,11.80
2018-12-30T06:42:36.990Z,17.60
2018-12-30T06:45:41.386Z,18.30
2018-12-30T06:48:45.676Z,14.70
2018-12-30T06:51:50.081Z,20.33
2018-12-30T06:54:54.427Z,14.73
2018-12-30T06:57:58.704Z,20.50
2018-12-30T07:01:02.988Z,16.27
2018-12-30T07:04:07.337Z,10.83
2018-12-30T07:07:11.726Z,15.07
2018-12-30T07:10:16.030Z,21.27
2018-12-30T07:13:20.292Z,13.87
2018-12-30T07:16:24.568Z,24.10
2018-12-30T07:19:28.956Z,17.83
2018-12-30T07:22:33.248Z,15.43
2018-12-30T07:25:37.761Z,10.60
2018-12-30T07:28:42.062Z,15.33
2018-12-30T07:31:46.446Z,12.63
2018-12-30T07:34:50.852Z,13.47
2018-12-30T07:37:55.155Z,12.90
2018-12-30T07:40:59.480Z,18.17
2018-12-30T07:44:03.756Z,15.13
2018-12-30T07:47:08.146Z,18.10
2018-12-30T07:50:12.421Z,13.77
2018-12-30T07:53:16.781Z,13.80
2018-12-30T07:56:21.142Z,14.00
2018-12-30T07:59:25.494Z,14.30
2018-12-30T08:02:29.797Z,11.63
2018-12-30T08:05:34.150Z,13.77
2018-12-30T08:08:38.434Z,18.90
2018-12-30T08:11:42.806Z,17.40
2018-12-30T08:14:47.206Z,15.43
2018-12-30T08:17:51.527Z,14.27
2018-12-30T08:20:55.802Z,18.80
2018-12-30T08:24:04.096Z,19.50
2018-12-30T08:27:08.381Z,13.70
2018-12-30T08:30:12.702Z,19.97
2018-12-30T08:33:17.025Z,20.17
2018-12-30T08:36:21.310Z,8.53
2018-12-30T08:39:25.667Z,13.43
2018-12-30T08:42:30.015Z,14.70
2018-12-30T08:45:34.362Z,10.60
2018-12-30T08:48:38.610Z,21.07
2018-12-30T08:51:42.900Z,15.90
2018-12-30T08:54:47.304Z,15.00
2018-12-30T08:57:51.652Z,14.00
2018-12-30T09:00:56.017Z,15.33
2018-12-30T09:04:00.326Z,17.33
2018-12-30T09:07:04.709Z,18.47
2018-12-30T09:10:09.196Z,12.20
2018-12-30T09:13:13.506Z,17.53
2018-12-30T09:16:17.793Z,12.93
2018-12-30T09:19:22.156Z,18.90
2018-12-30T09:22:26.406Z,16.97
2018-12-30T09:25:30.728Z,12.10
2018-12-30T09:28:34.976Z,18.53
2018-12-30T09:31:40.751Z,12.30
2018-12-30T09:34:45.033Z,16.33
2018-12-30T09:37:49.332Z,12.93
2018-12-30T09:40:53.645Z,7.80
2018-12-30T09:44:00.933Z,15.43
2018-12-30T09:47:05.293Z,10.20
2018-12-30T09:50:09.586Z,16.17
2018-12-30T09:53:13.874Z,10.37
2018-12-30T09:56:18.260Z,10.37
2018-12-30T09:59:25.572Z,12.90
2018-12-30T10:02:29.967Z,14.07
2018-12-30T10:05:34.295Z,7.97
2018-12-30T10:08:38.607Z,9.43
2018-12-30T10:11:42.934Z,11.37
2018-12-30T10:14:47.302Z,9.03
2018-12-30T10:17:51.566Z,15.00
2018-12-30T10:20:55.852Z,13.27
2018-12-30T10:24:00.218Z,12.77
2018-12-30T10:27:04.527Z,8.60
2018-12-30T10:30:09.959Z,12.60
2018-12-30T10:33:14.296Z,22.80
2018-12-30T10:36:18.561Z,13.90
2018-12-30T10:39:22.858Z,9.90
2018-12-30T10:42:27.170Z,12.07
2018-12-30T10:45:31.485Z,11.53
2018-12-30T10:48:36.321Z,13.63
2018-12-30T10:51:41.198Z,10.90
2018-12-30T10:54:45.519Z,12.40
2018-12-30T10:57:49.845Z,7.67
2018-12-30T11:00:54.301Z,11.97
2018-12-30T11:03:58.726Z,14.93
2018-12-30T11:07:02.960Z,9.53
2018-12-30T11:10:07.460Z,17.63
2018-12-30T11:13:11.802Z,11.83
2018-12-30T11:16:16.211Z,12.13
2018-12-30T11:19:20.547Z,9.23
2018-12-30T11:22:25.010Z,10.20
2018-12-30T11:25:29.256Z,12.97
2018-12-30T11:28:34.891Z,7.83
2018-12-30T11:31:41.015Z,10.90
2018-12-30T11:34:45.306Z,7.80
2018-12-30T11:37:49.683Z,13.93
2018-12-30T11:40:53.991Z,7.50
2018-12-30T11:43:58.247Z,7.77
2018-12-30T11:47:02.593Z,7.90
2018-12-30T11:50:07.855Z,7.40
2018-12-30T11:53:12.267Z,12.00
2018-12-30T11:56:16.606Z,11.87
2018-12-30T11:59:20.967Z,6.57
2018-12-30T12:02:25.279Z,10.50
2018-12-30T12:05:29.572Z,6.10
2018-12-30T12:08:33.947Z,15.70
2018-12-30T12:11:38.217Z,17.33
2018-12-30T12:14:42.577Z,7.80
2018-12-30T12:17:46.832Z,8.57
2018-12-30T12:20:51.245Z,11.70
2018-12-30T12:23:55.547Z,13.63
2018-12-30T12:26:59.917Z,15.80
2018-12-30T12:30:05.122Z,8.53
2018-12-30T12:33:09.892Z,13.67
2018-12-30T12:36:14.160Z,13.10
2018-12-30T12:39:18.481Z,10.83
2018-12-30T12:42:22.827Z,15.37
2018-12-30T12:45:27.110Z,11.13
2018-12-30T12:48:31.415Z,17.63
2018-12-30T12:51:35.757Z,9.57
2018-12-30T12:54:40.099Z,17.40
2018-12-30T12:57:44.440Z,20.10
2018-12-30T13:00:48.721Z,15.00
2018-12-30T13:03:53.026Z,14.93
2018-12-30T13:06:57.359Z,19.50
2018-12-30T13:10:01.744Z,20.03
2018-12-30T13:13:06.112Z,19.83
2018-12-30T13:16:10.411Z,14.43
2018-12-30T13:19:14.685Z,9.70
2018-12-30T13:22:18.939Z,15.90
2018-12-30T13:25:23.252Z,13.73
2018-12-30T13:28:38.155Z,15.53
2018-12-30T13:31:42.576Z,12.90
2018-12-30T13:34:48.388Z,14.27
2018-12-30T13:37:52.808Z,12.03
2018-12-30T13:40:57.301Z,19.00
2018-12-30T13:44:01.534Z,16.93
2018-12-30T13:47:05.871Z,17.83
2018-12-30T13:50:10.156Z,17.47
2018-12-30T13:53:14.471Z,10.90
2018-12-30T13:56:18.800Z,13.77
2018-12-30T13:59:23.122Z,13.23
2018-12-30T14:02:27.461Z,12.87
2018-12-30T14:05:31.720Z,17.83
2018-12-30T14:08:36.095Z,9.83
2018-12-30T14:11:43.011Z,7.30
2018-12-30T14:14:47.448Z,12.93
2018-12-30T14:17:51.778Z,14.70
2018-12-30T14:20:56.083Z,10.13
2018-12-30T14:24:00.385Z,20.40
2018-12-30T14:27:06.317Z,13.37
2018-12-30T14:30:10.801Z,10.03
2018-12-30T14:33:15.192Z,7.80
2018-12-30T14:36:19.598Z,7.23
2018-12-30T14:39:23.861Z,17.67
2018-12-30T14:42:28.168Z,7.17
2018-12-30T14:45:32.440Z,14.83
2018-12-30T14:48:36.726Z,9.90
2018-12-30T14:51:41.081Z,10.13
2018-12-30T14:54:45.431Z,11.50
2018-12-30T14:57:49.754Z,9.57
2018-12-30T15:00:54.145Z,13.97
2018-12-30T15:03:58.529Z,11.50
2018-12-30T15:07:02.794Z,12.20
2018-12-30T15:10:07.140Z,11.90
2018-12-30T15:13:11.432Z,15.80
2018-12-30T15:16:15.765Z,12.00
2018-12-30T15:19:20.132Z,8.47
2018-12-30T15:22:24.395Z,21.30
2018-12-30T15:25:28.745Z,10.93
2018-12-30T15:28:33.326Z,10.30
2018-12-30T15:31:37.774Z,10.07
2018-12-30T15:34:42.154Z,10.60
2018-12-30T15:37:46.736Z,13.37
2018-12-30T15:40:51.056Z,11.60
2018-12-30T15:43:55.459Z,14.67
2018-12-30T15:46:59.873Z,12.97
2018-12-30T15:50:04.485Z,14.20
2018-12-30T15:53:08.786Z,12.03
2018-12-30T15:56:13.158Z,18.30
2018-12-30T15:59:17.510Z,10.20
2018-12-30T16:02:21.794Z,11.97
2018-12-30T16:05:26.138Z,18.43
2018-12-30T16:08:30.519Z,11.27
2018-12-30T16:11:34.894Z,10.83
2018-12-30T16:14:39.505Z,12.90
2018-12-30T16:17:43.839Z,9.40
2018-12-30T16:20:48.103Z,10.10
2018-12-30T16:23:52.457Z,12.23
2018-12-30T16:26:56.790Z,12.67
2018-12-30T16:30:01.107Z,14.87
2018-12-30T16:33:06.531Z,10.13
2018-12-30T16:36:10.843Z,6.10
2018-12-30T16:39:15.180Z,11.60
2018-12-30T16:42:19.441Z,10.27
2018-12-30T16:45:23.759Z,7.60
2018-12-30T16:48:28.029Z,9.60
2018-12-30T16:51:32.369Z,12.43
2018-12-30T16:54:38.354Z,9.80
2018-12-30T16:57:44.499Z,8.90
2018-12-30T17:00:50.731Z,12.70
2018-12-30T17:03:56.614Z,11.37
2018-12-30T17:07:02.008Z,5.93
2018-12-30T17:10:10.943Z,8.10
2018-12-30T17:13:15.835Z,14.57
2018-12-30T17:16:23.504Z,13.07
2018-12-30T17:19:28.831Z,9.80
2018-12-30T17:22:33.525Z,8.90
2018-12-30T17:25:43.107Z,11.30
2018-12-30T17:28:43.989Z,10.73
2018-12-30T17:31:48.273Z,7.93
2018-12-30T17:34:52.968Z,7.50
2018-12-30T17:37:57.348Z,9.93
2018-12-30T17:41:01.977Z,7.90
2018-12-30T17:44:06.369Z,10.73
2018-12-30T17:47:10.679Z,8.73
2018-12-30T17:50:14.983Z,5.07
2018-12-30T17:53:19.429Z,7.27
2018-12-30T17:56:23.739Z,9.20
2018-12-30T17:59:28.108Z,11.33
2018-12-30T18:02:32.418Z,5.80
2018-12-30T18:05:36.780Z,11.70
2018-12-30T18:08:41.076Z,8.60
2018-12-30T18:11:45.310Z,7.10
2018-12-30T18:14:51.269Z,8.17
2018-12-30T18:17:55.825Z,8.57
2018-12-30T18:21:00.181Z,9.87
2018-12-30T18:24:04.449Z,13.57
2018-12-30T18:27:08.882Z,11.90
2018-12-30T18:30:13.305Z,11.23
2018-12-30T18:33:17.583Z,12.40
2018-12-30T18:36:21.940Z,12.07
2018-12-30T18:39:26.283Z,12.30
2018-12-30T18:42:30.540Z,12.60
2018-12-30T18:45:34.826Z,12.33
2018-12-30T18:48:39.186Z,18.73
2018-12-30T18:51:43.499Z,15.90
2018-12-30T18:54:47.948Z,21.80
2018-12-30T18:57:52.288Z,14.47
2018-12-30T19:00:56.631Z,12.40
2018-12-30T19:04:00.944Z,14.60
2018-12-30T19:07:05.248Z,11.57
2018-12-30T19:10:09.529Z,17.80
2018-12-30T19:13:13.841Z,14.87
2018-12-30T19:16:18.236Z,19.37
2018-12-30T19:19:22.583Z,14.93
2018-12-30T19:22:26.866Z,10.83
2018-12-30T19:25:31.165Z,22.37
2018-12-30T19:28:35.553Z,15.53
2018-12-30T19:31:39.871Z,22.80
2018-12-30T19:34:44.220Z,15.47
2018-12-30T19:37:48.625Z,16.70
2018-12-30T19:40:52.934Z,21.20
2018-12-30T19:43:57.285Z,18.57
2018-12-30T19:47:01.569Z,17.50
2018-12-30T19:50:06.340Z,19.50
2018-12-30T19:53:10.624Z,25.07
2018-12-30T19:56:21.721Z,19.67
2018-12-30T19:59:21.229Z,16.20
2018-12-30T20:02:26.690Z,24.93
2018-12-30T20:05:32.389Z,18.77
2018-12-30T20:08:37.100Z,18.63
2018-12-30T20:11:41.870Z,19.30
2018-12-30T20:14:46.463Z,15.87
2018-12-30T20:17:50.905Z,15.40
2018-12-30T20:20:55.393Z,12.40
2018-12-30T20:24:00.159Z,15.00
2018-12-30T20:27:04.606Z,13.00
2018-12-30T20:30:10.070Z,13.63
2018-12-30T20:33:14.468Z,16.10
2018-12-30T20:36:18.809Z,14.60
2018-12-30T20:39:23.107Z,17.57
2018-12-30T20:42:27.509Z,28.23
2018-12-30T20:45:31.900Z,26.27
2018-12-30T20:48:36.274Z,26.73
2018-12-30T20:51:40.613Z,34.70
2018-12-30T20:54:44.933Z,29.30
2018-12-30T20:57:49.318Z,31.87
2018-12-30T21:00:53.585Z,33.00
2018-12-30T21:03:57.911Z,30.80
2018-12-30T21:07:02.233Z,30.87
2018-12-30T21:10:07.328Z,29.47
2018-12-30T21:13:11.630Z,31.20
2018-12-30T21:16:15.961Z,33.07
2018-12-30T21:19:20.295Z,41.93
2018-12-30T21:22:24.563Z,35.10
2018-12-30T21:25:28.998Z,30.80
2018-12-30T21:28:33.400Z,36.00
2018-12-30T21:31:37.809Z,35.00
2018-12-30T21:34:42.245Z,35.43
2018-12-30T21:37:46.583Z,37.60
2018-12-30T21:40:51.063Z,37.27
2018-12-30T21:43:55.395Z,34.30
2018-12-30T21:46:59.939Z,35.97
2018-12-30T21:50:04.386Z,39.63
2018-12-30T21:53:08.879Z,33.03
2018-12-30T21:56:13.255Z,34.03
2018-12-30T21:59:17.538Z,34.50
2018-12-30T22:02:21.850Z,33.03
2018-12-30T22:05:26.194Z,36.63
2018-12-30T22:08:30.516Z,36.00
2018-12-30T22:11:34.814Z,36.70
2018-12-30T22:14:39.235Z,37.40
2018-12-30T22:17:43.513Z,35.67
2018-12-30T22:20:47.876Z,35.77
2018-12-30T22:23:52.259Z,35.37
2018-12-30T22:26:56.645Z,35.70
2018-12-30T22:30:00.991Z,36.23
2018-12-30T22:33:05.378Z,37.57
2018-12-30T22:36:09.701Z,31.97
2018-12-30T22:39:14.009Z,36.47
2018-12-30T22:42:18.419Z,34.50
2018-12-30T22:45:22.732Z,35.00
2018-12-30T22:48:27.068Z,34.50
2018-12-30T22:51:31.478Z,35.23
2018-12-30T22:54:35.870Z,36.50
2018-12-30T22:57:40.198Z,37.67
2018-12-30T23:00:57.065Z,34.50
2018-12-30T23:04:01.413Z,33.93
2018-12-30T23:07:05.705Z,42.37
2018-12-30T23:10:10.093Z,37.07
2018-12-30T23:13:14.383Z,38.77
2018-12-30T23:16:18.670Z,34.87
2018-12-30T23:19:22.955Z,43.43
2018-12-30T23:22:27.257Z,40.20
2018-12-30T23:25:31.585Z,36.87
2018-12-30T23:28:35.944Z,38.30
2018-12-30T23:31:40.234Z,40.67
2018-12-30T23:34:44.800Z,41.30
2018-12-30T23:37:49.100Z,35.73
2018-12-30T23:40:53.379Z,38.90
2018-12-30T23:43:57.717Z,34.53
2018-12-30T23:47:02.054Z,35.23
2018-12-30T23:50:06.623Z,36.83
2018-12-30T23:53:10.960Z,30.00
2018-12-30T23:56:15.247Z,33.23
2018-12-30T23:59:19.499Z,31.27
